Troitsko-Pechorsk, Russia
Current Conditions -  °F | °C
As of 10:00 AM on Tuesday 21 Oct 2014 (Local Time) from UUYY Reporting Station
Clear Clear  
Wind Chill:   Ceiling: Unl
Heat Index: 10°   Visibility: 6mi
Dew Point:   Wind: 4mph
Humidity: 79%   Direction: 40°NE
Pressure: 29.85"   Gusts: NA
Location:  62.7°N, 56.2°E
Report Text: UUYY 210700Z 04002MPS CAVOK M12/M15 Q1011 NOSIG 01CLRD61 RMKQFE749/0999
Loading
Personal Weather Stations






























Interactive Weather Map
Tropical Storm Tracking
New forecast layout! Learn more

10-Day Weather Forecast

Advertisements
Track Severe Weather on mobile